sensor_id;sensor_type;location;lat;lon;timestamp;P1;durP1;ratioP1;P2;durP2;ratioP2
49910;SDS011;35803;53.096;5.844;2024-03-06T19:43:38;40.90;;;18.92;;
49910;SDS011;35803;53.096;5.844;2024-03-06T19:46:23;40.20;;;18.98;;
49910;SDS011;35803;53.096;5.844;2024-03-06T19:49:09;40.38;;;18.55;;
49910;SDS011;35803;53.096;5.844;2024-03-06T19:51:55;41.22;;;18.33;;
49910;SDS011;35803;53.096;5.844;2024-03-06T19:54:44;40.67;;;18.17;;
49910;SDS011;35803;53.096;5.844;2024-03-06T19:57:29;42.67;;;18.45;;
49910;SDS011;35803;53.096;5.844;2024-03-06T20:00:15;41.35;;;18.52;;
49910;SDS011;35803;53.096;5.844;2024-03-06T20:03:05;46.80;;;19.63;;
49910;SDS011;35803;53.096;5.844;2024-03-06T20:05:51;43.75;;;19.48;;
49910;SDS011;35803;53.096;5.844;2024-03-06T20:08:37;44.38;;;21.25;;
49910;SDS011;35803;53.096;5.844;2024-03-06T20:11:22;42.65;;;19.23;;
49910;SDS011;35803;53.096;5.844;2024-03-06T20:14:11;45.95;;;19.35;;
49910;SDS011;35803;53.096;5.844;2024-03-06T20:16:57;44.72;;;18.75;;
49910;SDS011;35803;53.096;5.844;2024-03-06T20:19:43;45.85;;;20.50;;
49910;SDS011;35803;53.096;5.844;2024-03-06T20:22:31;48.83;;;20.15;;
49910;SDS011;35803;53.096;5.844;2024-03-06T20:25:16;45.40;;;19.75;;
49910;SDS011;35803;53.096;5.844;2024-03-06T20:28:02;47.58;;;20.52;;
49910;SDS011;35803;53.096;5.844;2024-03-06T20:30:50;48.33;;;20.00;;
49910;SDS011;35803;53.096;5.844;2024-03-06T20:33:37;44.75;;;19.52;;
49910;SDS011;35803;53.096;5.844;2024-03-06T20:36:23;48.40;;;20.10;;
49910;SDS011;35803;53.096;5.844;2024-03-06T20:39:09;51.58;;;21.77;;
49910;SDS011;35803;53.096;5.844;2024-03-06T20:42:00;48.90;;;21.48;;
49910;SDS011;35803;53.096;5.844;2024-03-06T20:44:46;49.08;;;21.02;;
49910;SDS011;35803;53.096;5.844;2024-03-06T20:47:32;47.95;;;20.33;;
49910;SDS011;35803;53.096;5.844;2024-03-06T20:50:18;44.33;;;19.92;;
49910;SDS011;35803;53.096;5.844;2024-03-06T20:53:04;52.30;;;21.77;;
49910;SDS011;35803;53.096;5.844;2024-03-06T20:55:49;50.53;;;20.48;;
49910;SDS011;35803;53.096;5.844;2024-03-06T20:58:36;49.72;;;20.35;;
49910;SDS011;35803;53.096;5.844;2024-03-06T21:01:21;47.00;;;20.35;;
49910;SDS011;35803;53.096;5.844;2024-03-06T21:04:08;44.20;;;19.02;;
49910;SDS011;35803;53.096;5.844;2024-03-06T21:06:56;44.58;;;19.90;;
49910;SDS011;35803;53.096;5.844;2024-03-06T21:09:42;51.63;;;21.33;;
49910;SDS011;35803;53.096;5.844;2024-03-06T21:12:28;46.08;;;19.45;;
49910;SDS011;35803;53.096;5.844;2024-03-06T21:15:16;48.28;;;20.48;;
49910;SDS011;35803;53.096;5.844;2024-03-06T21:18:02;47.75;;;19.67;;
49910;SDS011;35803;53.096;5.844;2024-03-06T21:20:49;48.30;;;20.70;;
49910;SDS011;35803;53.096;5.844;2024-03-06T21:23:35;45.58;;;19.90;;
49910;SDS011;35803;53.096;5.844;2024-03-06T21:26:21;43.05;;;20.17;;
49910;SDS011;35803;53.096;5.844;2024-03-06T21:29:06;49.75;;;20.45;;
49910;SDS011;35803;53.096;5.844;2024-03-06T21:31:52;47.25;;;19.35;;
49910;SDS011;35803;53.096;5.844;2024-03-06T21:34:39;49.60;;;20.50;;
49910;SDS011;35803;53.096;5.844;2024-03-06T21:37:27;47.70;;;20.35;;
49910;SDS011;35803;53.096;5.844;2024-03-06T21:40:13;54.58;;;20.27;;
49910;SDS011;35803;53.096;5.844;2024-03-06T21:42:59;48.00;;;20.52;;
49910;SDS011;35803;53.096;5.844;2024-03-06T21:45:48;48.75;;;20.00;;
49910;SDS011;35803;53.096;5.844;2024-03-06T21:48:34;46.25;;;18.77;;
49910;SDS011;35803;53.096;5.844;2024-03-06T21:51:20;50.85;;;20.33;;
49910;SDS011;35803;53.096;5.844;2024-03-06T21:54:06;54.25;;;21.90;;
49910;SDS011;35803;53.096;5.844;2024-03-06T21:56:51;47.70;;;22.20;;
49910;SDS011;35803;53.096;5.844;2024-03-06T21:59:41;49.33;;;20.52;;
49910;SDS011;35803;53.096;5.844;2024-03-06T22:02:27;46.70;;;19.75;;
49910;SDS011;35803;53.096;5.844;2024-03-06T22:05:13;51.47;;;19.67;;
49910;SDS011;35803;53.096;5.844;2024-03-06T22:07:59;51.50;;;20.38;;
49910;SDS011;35803;53.096;5.844;2024-03-06T22:10:44;48.85;;;20.30;;
49910;SDS011;35803;53.096;5.844;2024-03-06T22:13:30;43.95;;;19.83;;
49910;SDS011;35803;53.096;5.844;2024-03-06T22:16:17;48.00;;;19.65;;
49910;SDS011;35803;53.096;5.844;2024-03-06T22:19:04;49.97;;;20.45;;
49910;SDS011;35803;53.096;5.844;2024-03-06T22:21:50;47.42;;;20.13;;
49910;SDS011;35803;53.096;5.844;2024-03-06T22:24:36;49.63;;;20.38;;
49910;SDS011;35803;53.096;5.844;2024-03-06T22:27:21;52.55;;;21.30;;
49910;SDS011;35803;53.096;5.844;2024-03-06T22:30:07;45.15;;;19.55;;
49910;SDS011;35803;53.096;5.844;2024-03-06T22:32:53;50.72;;;20.92;;
49910;SDS011;35803;53.096;5.844;2024-03-06T22:35:39;50.70;;;20.60;;
49910;SDS011;35803;53.096;5.844;2024-03-06T22:38:25;51.42;;;20.95;;
49910;SDS011;35803;53.096;5.844;2024-03-06T22:41:23;56.50;;;21.35;;
49910;SDS011;35803;53.096;5.844;2024-03-06T22:44:10;47.17;;;20.42;;
49910;SDS011;35803;53.096;5.844;2024-03-06T22:46:55;50.95;;;20.75;;
49910;SDS011;35803;53.096;5.844;2024-03-06T22:49:41;47.70;;;19.77;;
49910;SDS011;35803;53.096;5.844;2024-03-06T22:52:27;54.17;;;21.55;;
49910;SDS011;35803;53.096;5.844;2024-03-06T22:55:13;52.80;;;21.45;;
49910;SDS011;35803;53.096;5.844;2024-03-06T22:57:58;48.53;;;20.48;;
49910;SDS011;35803;53.096;5.844;2024-03-06T23:00:45;39.67;;;18.98;;
49910;SDS011;35803;53.096;5.844;2024-03-06T23:03:33;46.22;;;19.50;;
49910;SDS011;35803;53.096;5.844;2024-03-06T23:06:20;46.40;;;20.25;;
49910;SDS011;35803;53.096;5.844;2024-03-06T23:09:06;43.13;;;19.08;;
49910;SDS011;35803;53.096;5.844;2024-03-06T23:11:52;50.67;;;20.65;;
49910;SDS011;35803;53.096;5.844;2024-03-06T23:14:38;48.00;;;20.10;;
49910;SDS011;35803;53.096;5.844;2024-03-06T23:17:25;49.20;;;20.10;;
49910;SDS011;35803;53.096;5.844;2024-03-06T23:20:11;47.75;;;18.88;;
49910;SDS011;35803;53.096;5.844;2024-03-06T23:22:59;41.83;;;18.45;;
49910;SDS011;35803;53.096;5.844;2024-03-06T23:25:44;43.92;;;18.02;;
49910;SDS011;35803;53.096;5.844;2024-03-06T23:28:30;42.67;;;18.70;;
49910;SDS011;35803;53.096;5.844;2024-03-06T23:31:16;38.63;;;18.52;;
49910;SDS011;35803;53.096;5.844;2024-03-06T23:34:02;40.90;;;18.58;;
49910;SDS011;35803;53.096;5.844;2024-03-06T23:36:47;45.88;;;18.38;;
49910;SDS011;35803;53.096;5.844;2024-03-06T23:39:33;42.85;;;19.17;;
49910;SDS011;35803;53.096;5.844;2024-03-06T23:42:19;43.92;;;18.80;;
49910;SDS011;35803;53.096;5.844;2024-03-06T23:45:05;38.63;;;16.75;;
49910;SDS011;35803;53.096;5.844;2024-03-06T23:47:53;41.25;;;17.95;;
49910;SDS011;35803;53.096;5.844;2024-03-06T23:50:39;44.75;;;18.75;;
49910;SDS011;35803;53.096;5.844;2024-03-06T23:53:25;38.83;;;17.85;;
49910;SDS011;35803;53.096;5.844;2024-03-06T23:56:10;40.63;;;18.13;;
49910;SDS011;35803;53.096;5.844;2024-03-06T23:58:56;38.08;;;18.10;;
